Share

Al-Kharj, Saudi Arabia

Prince Sultan Air Base (OEKJ) Elev 1640 ft | 24.07 °N, 47.58 °E | Change Station

Current weather conditions updated 53 minutes ago

Clear
Clear
97 °F
Feels Like 97 °F
N
5
Wind Variable Wind from East
Sunrise 5:24 AM
Sunset 6:15 PM
Moon Waning Gibbous

Tomorrow is forecast to be Warmer than today.

Pressure 29.86 in
Visibility -9999.0 miles
Clouds
Dew Point 27 °F
Humidity 8%
Rainfall 0.00 in
Snow Depth Not available.
UV Not available.
Pollen Not available.
Air Quality Not available.
Flu Activity Not available.
METAR OEKJ 211500Z 08004KT CAVOK 36/M03 Q1011

More Conditions Fewer Conditions

Pressure 29.86 in
Visibility -9999.0 miles
Clouds
Dew Point 27 °F
Humidity 8%
Rainfall 0.00 in
Snow Depth Not available.
UV Not available.
Pollen Not available.
Air Quality Not available.
Flu Activity Not available.
METAR OEKJ 211500Z 08004KT CAVOK 36/M03 Q1011

More Conditions Fewer Conditions

10-Day Weather Forecast

Almanac

Astronomy

Apr. 21, 2014 Rise Set
Actual Time 5:24 AM AST 6:15 PM AST
Civil Twilight 5:00 AM AST 6:38 PM AST
Nautical Twilight 4:33 AM AST 7:06 PM AST
Astronomical Twilight 4:05 AM AST 7:34 PM AST
Moon No Moon Rise 10:35 AM AST
Length of Visible Light 13h 37m
Length of Day
12h 50m
Tomorrow will be 1m 16s longer.
Waning Gibbous, 58% of the Moon is Illuminated
Today
Waning Gibbous
Apr 22
Last Quarter
Apr 29
New
May 6
First Quarter
May 14
Full

Today's Extremes

Country Highs Country Lows

Community

  • Bright Eyes
    Bright Eyes
  • Snowy Robin
    Snowy Robin
  • Spring Crocus
    Spring Crocus
  • Sun Pillar and Geese
    Sun Pillar and Geese
  • Showers on the Way
    Showers on the Way

WunderPhotos

Upload Photos

1,703,667 photos uploaded!

Nearby

Snow Depth

Not available.

Coastal Water Temperatures

Place Temperature
No Stations Reporting

Earthquake Activity

City Distance Mag. Time & Date
No recent earthquake activity has been reported nearby.
Minimum magnitude displayed is 2.5.

Nearby Weather Stations

There are no personal weather stations in this area.

What do you think?

We're not finished. Please let us know what you like, what you don't like, and what you are still missing.